createdAt,value
2022-10-29T00:00:18.578Z,3.10
2022-10-29T00:02:46.236Z,2.78
2022-10-29T00:05:13.829Z,3.13
2022-10-29T00:07:41.388Z,2.20
2022-10-29T00:10:09.490Z,2.60
2022-10-29T00:12:38.497Z,2.47
2022-10-29T00:15:07.427Z,3.00
2022-10-29T00:17:35.090Z,2.55
2022-10-29T00:20:02.696Z,2.95
2022-10-29T00:22:30.317Z,2.58
2022-10-29T00:24:58.016Z,2.20
2022-10-29T00:27:26.093Z,3.20
2022-10-29T00:29:55.656Z,2.28
2022-10-29T00:32:24.449Z,2.78
2022-10-29T00:34:52.053Z,3.15
2022-10-29T00:37:19.688Z,3.00
2022-10-29T00:39:47.349Z,2.80
2022-10-29T00:42:16.000Z,2.95
2022-10-29T00:44:43.629Z,2.47
2022-10-29T00:47:17.180Z,2.83
2022-10-29T00:49:46.029Z,2.65
2022-10-29T00:52:14.690Z,3.47
2022-10-29T00:54:43.574Z,2.83
2022-10-29T00:57:12.401Z,2.85
2022-10-29T00:59:40.793Z,2.70
2022-10-29T01:02:08.748Z,3.25
2022-10-29T01:04:38.111Z,3.35
2022-10-29T01:07:05.881Z,3.38
2022-10-29T01:09:33.462Z,3.30
2022-10-29T01:12:07.159Z,2.50
2022-10-29T01:14:39.677Z,2.90
2022-10-29T01:17:11.089Z,2.85
2022-10-29T01:19:51.518Z,2.58
2022-10-29T01:22:25.857Z,2.80
2022-10-29T01:24:58.305Z,3.20
2022-10-29T01:27:35.821Z,2.40
2022-10-29T01:30:07.082Z,2.60
2022-10-29T01:32:40.228Z,2.58
2022-10-29T01:35:10.940Z,3.10
2022-10-29T01:37:43.281Z,2.60
2022-10-29T01:40:16.002Z,2.95
2022-10-29T01:42:47.755Z,2.75
2022-10-29T01:45:18.948Z,3.80
2022-10-29T01:47:51.023Z,2.72
2022-10-29T01:50:20.961Z,2.80
2022-10-29T01:52:49.265Z,2.58
2022-10-29T01:55:17.457Z,3.10
2022-10-29T01:57:45.178Z,2.75
2022-10-29T02:00:14.874Z,2.92
2022-10-29T02:02:48.668Z,2.47
2022-10-29T02:05:21.185Z,2.83
2022-10-29T02:07:51.515Z,2.63
2022-10-29T02:10:24.035Z,2.65
2022-10-29T02:12:53.118Z,2.38
2022-10-29T02:15:23.078Z,2.53
2022-10-29T02:17:50.824Z,2.88
2022-10-29T02:20:19.835Z,2.05
2022-10-29T02:22:47.484Z,2.72
2022-10-29T02:25:15.225Z,2.88
2022-10-29T02:27:42.942Z,2.60
2022-10-29T02:30:10.845Z,2.40
2022-10-29T02:32:38.764Z,2.78
2022-10-29T02:35:06.813Z,2.50
2022-10-29T02:37:35.936Z,3.08
2022-10-29T02:40:03.862Z,2.95
2022-10-29T02:42:31.458Z,2.72
2022-10-29T02:44:59.040Z,3.55
2022-10-29T02:47:27.442Z,3.08
2022-10-29T02:49:55.099Z,2.20
2022-10-29T02:52:22.805Z,2.50
2022-10-29T02:54:51.664Z,2.30
2022-10-29T02:57:19.210Z,2.58
2022-10-29T02:59:46.815Z,2.60
2022-10-29T03:02:14.619Z,2.63
2022-10-29T03:04:44.403Z,2.75
2022-10-29T03:07:12.045Z,2.95
2022-10-29T03:09:39.662Z,2.83
2022-10-29T03:12:08.899Z,2.17
2022-10-29T03:14:36.438Z,2.70
2022-10-29T03:17:04.004Z,2.70
2022-10-29T03:19:31.675Z,3.10
2022-10-29T03:21:59.260Z,2.88
2022-10-29T03:24:26.842Z,2.97
2022-10-29T03:26:54.400Z,2.90
2022-10-29T03:29:25.035Z,3.28
2022-10-29T03:31:52.765Z,2.63
2022-10-29T03:34:20.382Z,3.22
2022-10-29T03:36:47.985Z,2.78
2022-10-29T03:39:15.546Z,3.30
2022-10-29T03:41:43.164Z,3.20
2022-10-29T03:44:10.736Z,2.85
2022-10-29T03:46:39.577Z,2.85
2022-10-29T03:49:07.286Z,3.20
2022-10-29T03:51:34.840Z,3.05
2022-10-29T03:54:02.730Z,2.30
2022-10-29T03:56:30.273Z,2.63
2022-10-29T03:58:58.145Z,2.40
2022-10-29T04:01:25.910Z,2.65
2022-10-29T04:03:54.850Z,2.85
2022-10-29T04:06:22.402Z,3.17
2022-10-29T04:08:49.979Z,2.47
2022-10-29T04:11:17.520Z,2.53
2022-10-29T04:13:45.129Z,2.83
2022-10-29T04:16:12.924Z,3.35
2022-10-29T04:18:40.515Z,3.17
2022-10-29T04:29:32.344Z,3.57
2022-10-29T04:31:59.933Z,3.07
2022-10-29T04:34:27.741Z,2.93
2022-10-29T04:36:56.657Z,2.80
2022-10-29T04:39:24.343Z,2.80
2022-10-29T04:41:51.906Z,3.10
2022-10-29T04:44:20.906Z,2.63
2022-10-29T04:46:48.520Z,2.87
2022-10-29T04:49:16.177Z,2.33
2022-10-29T04:51:43.888Z,2.50
2022-10-29T04:54:30.307Z,3.33
2022-10-29T04:56:57.945Z,2.87
2022-10-29T04:59:25.498Z,2.60
2022-10-29T05:01:53.046Z,2.50
2022-10-29T05:04:21.501Z,3.40
2022-10-29T05:06:49.113Z,3.40
2022-10-29T05:09:18.030Z,2.80
2022-10-29T05:11:45.601Z,2.40
2022-10-29T05:14:13.387Z,3.20
2022-10-29T05:16:40.939Z,3.63
2022-10-29T05:19:08.556Z,2.70
2022-10-29T05:21:36.151Z,2.90
2022-10-29T05:24:03.801Z,3.00
2022-10-29T05:26:33.045Z,2.53
2022-10-29T05:29:00.650Z,2.90
2022-10-29T05:31:28.367Z,2.97
2022-10-29T05:33:56.166Z,2.90
2022-10-29T05:36:23.908Z,3.47
2022-10-29T05:38:51.517Z,2.80
2022-10-29T05:41:19.200Z,3.23
2022-10-29T05:43:50.326Z,3.13
2022-10-29T05:46:17.996Z,2.63
2022-10-29T05:48:45.594Z,3.00
2022-10-29T05:51:13.197Z,2.90
2022-10-29T05:53:40.799Z,3.20
2022-10-29T05:56:08.377Z,2.57
2022-10-29T05:58:35.949Z,3.00
2022-10-29T06:01:08.167Z,2.80
2022-10-29T06:03:35.716Z,2.50
2022-10-29T06:06:03.460Z,2.83
2022-10-29T06:08:31.113Z,2.80
2022-10-29T06:11:01.233Z,3.00
2022-10-29T06:13:28.830Z,3.27
2022-10-29T06:15:57.701Z,2.67
2022-10-29T06:18:26.814Z,2.53
2022-10-29T06:20:54.460Z,2.90
2022-10-29T06:23:22.325Z,2.87
2022-10-29T06:25:49.932Z,3.17
2022-10-29T06:28:19.133Z,2.93
2022-10-29T06:30:47.335Z,2.77
2022-10-29T06:33:15.042Z,2.90
2022-10-29T06:35:43.951Z,3.27
2022-10-29T06:38:12.502Z,2.20
2022-10-29T06:40:40.583Z,3.20
2022-10-29T06:43:09.187Z,2.67
2022-10-29T06:45:37.077Z,3.50
2022-10-29T06:48:06.012Z,3.07
2022-10-29T06:50:34.102Z,2.58
2022-10-29T06:53:04.108Z,3.00
2022-10-29T06:55:32.060Z,3.15
2022-10-29T06:58:00.278Z,3.38
2022-10-29T07:00:28.747Z,2.53
2022-10-29T07:02:57.358Z,2.97
2022-10-29T07:05:25.718Z,3.35
2022-10-29T07:07:55.647Z,2.78
2022-10-29T07:10:25.335Z,2.28
2022-10-29T07:12:53.212Z,3.03
2022-10-29T07:15:24.148Z,2.58
2022-10-29T07:17:55.599Z,2.92
2022-10-29T07:20:23.739Z,3.30
2022-10-29T07:22:51.517Z,2.70
2022-10-29T07:25:19.900Z,3.20
2022-10-29T07:27:48.969Z,2.55
2022-10-29T07:30:16.907Z,2.60
2022-10-29T07:32:44.561Z,2.42
2022-10-29T07:35:12.328Z,3.42
2022-10-29T07:37:39.925Z,2.38
2022-10-29T07:40:08.145Z,3.78
2022-10-29T07:42:35.773Z,3.78
2022-10-29T07:45:04.807Z,3.33
2022-10-29T07:47:32.703Z,4.47
2022-10-29T07:50:17.934Z,4.25
2022-10-29T07:52:45.625Z,3.47
2022-10-29T07:55:13.207Z,2.95
2022-10-29T07:57:40.773Z,2.83
2022-10-29T08:00:12.924Z,2.85
2022-10-29T08:02:42.308Z,2.60
2022-10-29T08:05:09.970Z,2.55
2022-10-29T08:07:37.585Z,2.55
2022-10-29T08:10:05.374Z,2.20
2022-10-29T08:12:33.182Z,2.72
2022-10-29T08:15:00.833Z,2.78
2022-10-29T08:17:31.679Z,2.75
2022-10-29T08:19:59.747Z,3.65
2022-10-29T08:22:27.470Z,2.70
2022-10-29T08:24:55.027Z,2.38
2022-10-29T08:27:22.646Z,3.10
2022-10-29T08:29:50.249Z,2.70
2022-10-29T08:32:17.849Z,2.53
2022-10-29T08:34:46.965Z,2.83
2022-10-29T08:37:14.650Z,2.17
2022-10-29T08:39:42.251Z,2.65
2022-10-29T08:42:14.550Z,2.20
2022-10-29T08:44:57.188Z,2.35
2022-10-29T08:47:25.002Z,2.60
2022-10-29T08:50:01.162Z,2.35
2022-10-29T08:52:29.558Z,3.05
2022-10-29T08:55:04.750Z,2.17
2022-10-29T08:57:34.268Z,2.05
2022-10-29T09:00:05.493Z,2.00
2022-10-29T09:02:33.247Z,1.80
2022-10-29T09:05:02.923Z,1.83
2022-10-29T09:10:28.828Z,2.03
2022-10-29T09:13:02.545Z,1.92
2022-10-29T09:15:34.190Z,2.33
2022-10-29T09:18:09.835Z,2.10
2022-10-29T09:20:43.153Z,2.50
2022-10-29T09:23:15.548Z,2.30
2022-10-29T09:25:46.428Z,2.13
2022-10-29T09:28:24.800Z,1.90
2022-10-29T09:30:56.980Z,2.95
2022-10-29T09:33:24.910Z,2.47
2022-10-29T09:35:56.476Z,2.70
2022-10-29T09:38:25.573Z,2.35
2022-10-29T09:40:53.469Z,2.22
2022-10-29T09:43:26.881Z,2.05
2022-10-29T09:45:58.042Z,2.10
2022-10-29T09:48:28.077Z,2.25
2022-10-29T09:51:00.920Z,1.80
2022-10-29T09:53:29.687Z,2.22
2022-10-29T09:55:57.301Z,2.00
2022-10-29T09:58:26.100Z,2.33
2022-10-29T10:00:55.382Z,2.22
2022-10-29T10:03:26.046Z,2.35
2022-10-29T10:05:58.906Z,2.63
2022-10-29T10:08:26.766Z,2.58
2022-10-29T10:10:55.649Z,2.50
2022-10-29T10:13:27.396Z,1.83
2022-10-29T10:15:57.748Z,1.95
2022-10-29T10:18:26.736Z,2.33
2022-10-29T10:21:05.670Z,1.95
2022-10-29T10:23:41.188Z,2.08
2022-10-29T10:26:27.666Z,2.15
2022-10-29T10:29:05.612Z,2.25
2022-10-29T10:31:33.247Z,2.78
2022-10-29T10:34:08.656Z,2.30
2022-10-29T10:36:39.754Z,2.20
2022-10-29T10:39:20.393Z,2.40
2022-10-29T10:41:50.328Z,2.63
2022-10-29T10:44:19.237Z,2.20
2022-10-29T10:46:47.622Z,2.08
2022-10-29T10:49:18.014Z,2.42
2022-10-29T10:51:49.614Z,2.10
2022-10-29T10:54:26.955Z,1.90
2022-10-29T10:56:58.578Z,2.75
2022-10-29T10:59:27.996Z,2.28
2022-10-29T11:01:55.849Z,2.25
2022-10-29T11:04:26.651Z,1.90
2022-10-29T11:06:59.174Z,2.38
2022-10-29T11:09:27.948Z,2.53
2022-10-29T11:11:59.188Z,2.17
2022-10-29T11:14:28.888Z,2.85
2022-10-29T11:16:57.469Z,2.40
2022-10-29T11:19:31.289Z,2.30
2022-10-29T11:22:08.599Z,2.58
2022-10-29T11:24:39.900Z,2.35
2022-10-29T11:27:11.362Z,2.05
2022-10-29T11:29:43.865Z,2.08
2022-10-29T11:32:16.150Z,2.17
2022-10-29T11:34:47.702Z,1.80
2022-10-29T11:37:37.237Z,2.08
2022-10-29T11:40:08.242Z,1.80
2022-10-29T11:42:36.592Z,2.17
2022-10-29T11:45:04.246Z,2.17
2022-10-29T11:47:38.769Z,2.53
2022-10-29T11:50:10.804Z,2.10
2022-10-29T11:52:44.271Z,2.33
2022-10-29T11:55:20.282Z,2.17
2022-10-29T11:57:50.619Z,2.08
2022-10-29T12:00:19.308Z,1.80
2022-10-29T12:02:53.072Z,1.83
2022-10-29T12:05:24.135Z,2.92
2022-10-29T12:08:00.234Z,1.88
2022-10-29T12:10:33.561Z,1.90
2022-10-29T12:13:04.798Z,1.73
2022-10-29T12:15:34.192Z,1.88
2022-10-29T12:18:08.265Z,1.83
2022-10-29T12:20:41.874Z,1.98
2022-10-29T12:23:16.061Z,1.88
2022-10-29T12:25:52.300Z,2.40
2022-10-29T12:28:26.805Z,1.92
2022-10-29T12:31:20.480Z,1.60
2022-10-29T12:33:51.432Z,1.55
2022-10-29T12:36:23.574Z,1.60
2022-10-29T12:38:53.885Z,1.55
2022-10-29T12:41:23.075Z,1.98
2022-10-29T12:43:51.912Z,2.20
2022-10-29T12:46:22.688Z,2.25
2022-10-29T12:48:56.860Z,1.75
2022-10-29T12:51:28.244Z,2.00
2022-10-29T12:54:08.290Z,1.67
2022-10-29T12:56:35.868Z,1.65
2022-10-29T12:59:18.232Z,1.70
2022-10-29T13:02:10.488Z,2.17
2022-10-29T13:04:34.908Z,2.15
2022-10-29T13:07:04.096Z,2.50
2022-10-29T13:09:35.493Z,1.67
2022-10-29T13:12:03.905Z,3.10
2022-10-29T13:14:36.702Z,1.80
2022-10-29T13:17:05.462Z,2.00
2022-10-29T13:19:44.520Z,1.70
2022-10-29T13:22:21.691Z,1.50
2022-10-29T13:25:04.171Z,1.35
2022-10-29T13:27:35.231Z,2.00
2022-10-29T13:30:14.050Z,2.17
2022-10-29T13:32:41.699Z,1.40
2022-10-29T13:35:24.107Z,1.83
2022-10-29T13:37:52.289Z,2.20
2022-10-29T13:40:29.534Z,2.20
2022-10-29T13:43:00.964Z,1.92
2022-10-29T13:45:28.676Z,1.95
2022-10-29T13:47:58.882Z,1.70
2022-10-29T13:50:26.689Z,1.98
2022-10-29T13:52:56.166Z,1.63
2022-10-29T13:55:24.866Z,2.05
2022-10-29T13:57:59.714Z,1.50
2022-10-29T14:00:29.189Z,1.67
2022-10-29T14:02:58.808Z,2.35
2022-10-29T14:05:29.495Z,2.10
2022-10-29T14:07:59.638Z,1.90
2022-10-29T14:13:01.712Z,1.98
2022-10-29T14:15:30.621Z,1.90
2022-10-29T14:17:58.219Z,2.03
2022-10-29T14:20:27.087Z,2.47
2022-10-29T14:22:55.563Z,1.67
2022-10-29T14:25:28.095Z,1.50
2022-10-29T14:28:07.852Z,2.00
2022-10-29T14:30:37.257Z,2.03
2022-10-29T14:33:17.814Z,1.80
2022-10-29T14:35:46.345Z,2.53
2022-10-29T14:38:14.394Z,2.72
2022-10-29T14:40:44.637Z,1.75
2022-10-29T14:43:19.438Z,2.08
2022-10-29T14:45:48.353Z,2.67
2022-10-29T14:48:18.546Z,2.65
2022-10-29T14:50:47.087Z,2.25
2022-10-29T14:53:24.119Z,2.03
2022-10-29T14:55:51.829Z,2.40
2022-10-29T14:58:21.973Z,1.67
2022-10-29T15:00:54.169Z,2.28
2022-10-29T15:03:23.656Z,2.00
2022-10-29T15:05:51.369Z,2.50
2022-10-29T15:08:24.047Z,2.05
2022-10-29T15:10:53.854Z,2.20
2022-10-29T15:13:23.332Z,2.55
2022-10-29T15:15:54.241Z,2.35
2022-10-29T15:18:22.801Z,2.30
2022-10-29T15:20:51.548Z,2.83
2022-10-29T15:23:20.927Z,2.10
2022-10-29T15:25:49.588Z,2.20
2022-10-29T15:28:22.384Z,2.50
2022-10-29T15:30:50.321Z,2.60
2022-10-29T15:33:21.437Z,2.45
2022-10-29T15:35:51.720Z,2.55
2022-10-29T15:38:52.650Z,2.25
2022-10-29T15:41:31.225Z,2.30
2022-10-29T15:43:59.425Z,2.28
2022-10-29T15:46:29.170Z,2.25
2022-10-29T15:48:58.548Z,2.45
2022-10-29T15:51:27.389Z,1.85
2022-10-29T15:53:56.466Z,1.92
2022-10-29T15:56:24.825Z,2.05
2022-10-29T15:58:52.968Z,2.00
2022-10-29T16:01:20.681Z,2.20
2022-10-29T16:03:48.444Z,2.28
2022-10-29T16:06:17.317Z,2.60
2022-10-29T16:08:47.777Z,2.17
2022-10-29T16:11:16.157Z,1.95
2022-10-29T16:13:43.722Z,2.97
2022-10-29T16:16:13.289Z,3.20
2022-10-29T16:18:41.083Z,2.10
2022-10-29T16:21:08.718Z,2.40
2022-10-29T16:23:38.424Z,2.17
2022-10-29T16:26:06.035Z,1.90
2022-10-29T16:28:33.652Z,2.40
2022-10-29T16:31:01.506Z,2.88
2022-10-29T16:33:29.255Z,2.42
2022-10-29T16:35:56.918Z,3.03
2022-10-29T16:38:24.541Z,1.75
2022-10-29T16:40:53.420Z,2.58
2022-10-29T16:43:21.017Z,1.98
2022-10-29T16:45:48.713Z,2.15
2022-10-29T16:48:16.385Z,2.38
2022-10-29T16:50:43.974Z,2.20
2022-10-29T16:53:12.065Z,2.80
2022-10-29T16:55:40.394Z,2.40
2022-10-29T16:58:09.449Z,2.55
2022-10-29T17:00:37.074Z,3.22
2022-10-29T17:03:08.344Z,2.65
2022-10-29T17:05:39.482Z,2.30
2022-10-29T17:08:07.352Z,2.78
2022-10-29T17:10:34.987Z,3.33
2022-10-29T17:13:02.632Z,2.53
2022-10-29T17:15:31.447Z,3.08
2022-10-29T17:17:59.416Z,2.90
2022-10-29T17:20:27.172Z,2.67
2022-10-29T17:22:54.823Z,3.03
2022-10-29T17:25:23.300Z,2.83
2022-10-29T17:27:52.008Z,3.40
2022-10-29T17:30:19.643Z,3.13
2022-10-29T17:32:48.640Z,2.97
2022-10-29T17:35:16.262Z,3.17
2022-10-29T17:37:44.067Z,3.78
2022-10-29T17:40:12.172Z,3.40
2022-10-29T17:42:39.772Z,3.40
2022-10-29T17:45:07.879Z,3.65
2022-10-29T17:47:35.629Z,3.22
2022-10-29T17:50:04.811Z,3.03
2022-10-29T17:52:32.592Z,4.43
2022-10-29T17:55:00.204Z,3.35
2022-10-29T17:57:27.929Z,3.70
2022-10-29T17:59:55.624Z,3.25
2022-10-29T18:02:23.638Z,3.15
2022-10-29T18:05:11.507Z,4.13
2022-10-29T18:07:39.153Z,3.88
2022-10-29T18:10:07.303Z,3.95
2022-10-29T18:12:34.896Z,3.50
2022-10-29T18:15:02.503Z,3.55
2022-10-29T18:17:30.389Z,3.38
2022-10-29T18:19:57.945Z,3.42
2022-10-29T18:22:26.915Z,3.67
2022-10-29T18:24:54.846Z,4.30
2022-10-29T18:27:22.423Z,3.85
2022-10-29T18:29:50.017Z,3.72
2022-10-29T18:32:17.985Z,3.85
2022-10-29T18:34:45.585Z,3.88
2022-10-29T18:37:13.225Z,3.95
2022-10-29T18:39:42.463Z,3.10
2022-10-29T18:42:10.266Z,3.63
2022-10-29T18:44:39.053Z,3.85
2022-10-29T18:47:06.703Z,3.88
2022-10-29T18:49:34.390Z,3.20
2022-10-29T18:52:02.047Z,4.07
2022-10-29T18:54:29.747Z,3.30
2022-10-29T18:56:58.792Z,3.28
2022-10-29T18:59:26.412Z,4.00
2022-10-29T19:01:54.179Z,4.13
2022-10-29T19:04:22.194Z,4.07
2022-10-29T19:06:49.838Z,3.88
2022-10-29T19:09:17.453Z,4.22
2022-10-29T19:11:45.257Z,3.63
2022-10-29T19:14:14.947Z,3.90
2022-10-29T19:16:42.581Z,3.92
2022-10-29T19:19:11.790Z,4.18
2022-10-29T19:21:40.068Z,3.80
2022-10-29T19:24:08.377Z,3.67
2022-10-29T19:26:36.560Z,3.65
2022-10-29T19:29:05.164Z,3.13
2022-10-29T19:31:34.473Z,3.78
2022-10-29T19:34:04.130Z,3.53
2022-10-29T19:36:31.953Z,3.78
2022-10-29T19:39:00.392Z,3.85
2022-10-29T19:41:29.312Z,3.60
2022-10-29T19:43:58.959Z,3.25
2022-10-29T19:46:26.855Z,3.45
2022-10-29T19:48:57.493Z,3.42
2022-10-29T19:51:25.202Z,4.07
2022-10-29T19:53:52.937Z,3.97
2022-10-29T19:56:21.826Z,4.60
2022-10-29T19:58:49.887Z,4.28
2022-10-29T20:01:18.346Z,3.92
2022-10-29T20:03:46.577Z,4.25
2022-10-29T20:06:16.059Z,3.78
2022-10-29T20:08:44.068Z,3.83
2022-10-29T20:11:11.730Z,3.78
2022-10-29T20:13:40.225Z,3.90
2022-10-29T20:16:09.018Z,3.92
2022-10-29T20:18:38.060Z,4.03
2022-10-29T20:23:35.002Z,3.40
2022-10-29T20:26:02.641Z,4.03
2022-10-29T20:28:30.296Z,4.13
2022-10-29T20:31:09.780Z,3.92
2022-10-29T20:33:38.254Z,4.10
2022-10-29T20:36:06.149Z,4.53
2022-10-29T20:38:35.127Z,3.75
2022-10-29T20:41:02.764Z,3.90
2022-10-29T20:43:30.396Z,3.55
2022-10-29T20:46:16.787Z,3.78
2022-10-29T20:48:44.369Z,4.00
2022-10-29T20:51:13.388Z,5.00
2022-10-29T20:53:42.399Z,4.15
2022-10-29T20:56:13.240Z,4.43
2022-10-29T20:58:43.847Z,3.97
2022-10-29T21:01:13.103Z,4.35
2022-10-29T21:03:41.244Z,4.13
2022-10-29T21:06:15.662Z,4.57
2022-10-29T21:08:45.966Z,3.65
2022-10-29T21:11:14.224Z,4.18
2022-10-29T21:13:41.892Z,4.75
2022-10-29T21:16:11.155Z,3.90
2022-10-29T21:18:39.772Z,4.72
2022-10-29T21:21:08.161Z,5.03
2022-10-29T21:23:37.118Z,3.97
2022-10-29T21:26:06.321Z,4.13
2022-10-29T21:28:34.428Z,4.25
2022-10-29T21:31:01.984Z,4.03
2022-10-29T21:33:29.677Z,5.03
2022-10-29T21:35:58.151Z,3.88
2022-10-29T21:38:26.614Z,3.80
2022-10-29T21:40:54.458Z,4.00
2022-10-29T21:43:23.544Z,4.90
2022-10-29T21:45:52.043Z,4.50
2022-10-29T21:48:20.166Z,4.32
2022-10-29T21:50:47.994Z,3.72
2022-10-29T21:55:43.222Z,4.43
2022-10-29T21:58:10.822Z,4.43
2022-10-29T22:00:39.762Z,3.97
2022-10-29T22:03:07.359Z,4.10
2022-10-29T22:05:34.989Z,4.05
2022-10-29T22:08:02.633Z,3.50
2022-10-29T22:10:31.088Z,3.72
2022-10-29T22:12:59.111Z,3.75
2022-10-29T22:15:27.092Z,3.70
2022-10-29T22:17:56.112Z,3.97
2022-10-29T22:20:23.690Z,3.85
2022-10-29T22:22:51.293Z,3.90
2022-10-29T22:25:18.870Z,3.85
2022-10-29T22:27:46.468Z,4.53
2022-10-29T22:33:00.562Z,3.90
2022-10-29T22:35:28.117Z,4.55
2022-10-29T22:37:56.224Z,4.20
2022-10-29T22:40:23.980Z,3.88
2022-10-29T22:42:51.756Z,3.90
2022-10-29T22:45:19.820Z,3.80
2022-10-29T22:47:47.418Z,4.00
2022-10-29T22:50:16.303Z,4.80
2022-10-29T22:52:43.919Z,3.75
2022-10-29T22:55:11.514Z,3.80
2022-10-29T22:57:39.171Z,4.07
2022-10-29T23:00:07.352Z,4.25
2022-10-29T23:02:35.151Z,4.85
2022-10-29T23:05:02.946Z,4.22
2022-10-29T23:09:59.562Z,4.00
2022-10-29T23:12:27.166Z,4.05
2022-10-29T23:14:54.727Z,3.95
2022-10-29T23:17:22.350Z,4.25
2022-10-29T23:19:50.186Z,3.90
2022-10-29T23:22:19.172Z,3.63
2022-10-29T23:24:49.834Z,3.90
2022-10-29T23:27:17.412Z,4.70
2022-10-29T23:29:45.233Z,4.97
2022-10-29T23:32:12.845Z,4.32
2022-10-29T23:34:40.689Z,3.53
2022-10-29T23:37:10.014Z,3.80
2022-10-29T23:39:38.294Z,4.00
2022-10-29T23:42:07.214Z,3.70
2022-10-29T23:44:34.803Z,3.03
2022-10-29T23:47:02.566Z,3.47
2022-10-29T23:49:30.428Z,3.40
2022-10-29T23:51:58.022Z,3.42
2022-10-29T23:54:25.575Z,3.38
2022-10-29T23:56:53.174Z,4.10
2022-10-29T23:59:22.169Z,3.70
